Time;durP1;ratioP1;P1;durP2;ratioP2;P2;SDS_P1;SDS_P2;PMS_P1;PMS_P2;Temp;Humidity;BMP_temperature;BMP_pressure;BME280_temperature;BME280_humidity;BME280_pressure;Samples;Min_cycle;Max_cycle;Signal;HPM_P1;HPM_P2
2022/06/14 00:00:54;;;;;;;;;;;;;;;12.70;65.39;99155.34;6194669;23;20010;-82
2022/06/14 00:03:24;;;;;;;;;;;;;;;12.70;65.13;99158.03;6195208;23;19920;-83
2022/06/14 00:05:50;;;;;;;;;;;;;;;12.72;65.29;99142.66;6219781;23;19931;-82
2022/06/14 00:08:17;;;;;;;;;;;;;;;12.77;65.21;99152.94;6245909;23;19919;-81
2022/06/14 00:10:42;;;;;;;;;;;;;;;12.81;64.96;99157.88;6219588;23;20290;-81
2022/06/14 00:13:09;;;;;;;;;;;;;;;12.86;64.98;99155.63;6244872;23;19926;-81
2022/06/14 00:15:34;;;;;;;;;;;;;;;12.89;64.79;99171.44;6194084;23;19923;-83
2022/06/14 00:18:00;;;;;;;;;;;;;;;12.93;64.36;99163.09;6219484;23;19973;-85
2022/06/14 00:20:26;;;;;;;;;;;;;;;12.93;64.29;99165.78;6219489;23;19927;-85
2022/06/14 00:22:52;;;;;;;;;;;;;;;12.95;64.46;99166.50;6245922;23;19920;-85
2022/06/14 00:25:37;;;;;;;;;;;;;;;13.05;64.24;99156.59;6246467;23;19941;-85
2022/06/14 00:28:04;;;;;;;;;;;;;;;13.11;63.82;99158.72;6219650;23;20339;-85
2022/06/14 00:30:30;;;;;;;;;;;;;;;13.13;63.39;99164.78;6219520;23;19966;-81
2022/06/14 00:32:56;;;;;;;;;;;;;;;13.13;63.21;99156.75;6246000;23;19923;-81
2022/06/14 00:35:22;;;;;;;;;;;;;;;13.16;63.18;99153.75;6244512;23;19920;-81
2022/06/14 00:37:48;;;;;;;;;;;;;;;13.20;63.21;99157.88;6245682;23;19978;-81
2022/06/14 00:40:16;;;;;;;;;;;;;;;13.23;62.97;99157.59;6219442;23;19919;-81
2022/06/14 00:42:42;;;;;;;;;;;;;;;13.26;62.94;99154.63;6194474;23;19957;-82
2022/06/14 00:45:11;;;;;;;;;;;;;;;13.33;62.89;99160.25;6219326;23;19919;-81
2022/06/14 00:47:39;;;;;;;;;;;;;;;13.37;62.71;99158.97;6219366;23;19926;-81
2022/06/14 00:50:06;;;;;;;;;;;;;;;13.41;62.57;99163.06;6196574;23;19924;-82
2022/06/14 00:52:38;;;;;;;;;;;;;;;13.45;62.51;99179.72;6196271;23;20355;-81
2022/06/14 00:55:11;;;;;;;;;;;;;;;13.46;62.16;99173.34;6221505;23;20374;-82
2022/06/14 00:57:42;;;;;;;;;;;;;;;13.50;62.05;99169.38;6195895;23;20354;-81
2022/06/14 01:00:11;;;;;;;;;;;;;;;13.53;62.14;99171.78;6247881;23;19920;-82
2022/06/14 01:02:57;;;;;;;;;;;;;;;13.55;61.75;99181.41;6221245;23;19920;-81
2022/06/14 01:06:05;;;;;;;;;;;;;;;13.58;61.52;99177.59;6247147;23;19962;-81
2022/06/14 01:08:15;;;;;;;;;;;;;;;13.63;61.31;99183.34;6247998;23;20398;-81
2022/06/14 01:10:43;;;;;;;;;;;;;;;13.57;61.05;99184.78;6246205;23;19962;-82
2022/06/14 01:13:09;;;;;;;;;;;;;;;13.55;61.20;99181.41;6221173;23;19943;-81
2022/06/14 01:15:35;;;;;;;;;;;;;;;13.58;60.92;99177.59;6247783;23;20248;-82
2022/06/14 01:18:03;;;;;;;;;;;;;;;13.62;61.04;99186.19;6221431;23;19981;-82
2022/06/14 01:20:30;;;;;;;;;;;;;;;13.66;60.83;99185.75;6196147;23;19919;-82
2022/06/14 01:22:56;;;;;;;;;;;;;;;13.71;60.65;99183.47;6195922;23;20299;-82
2022/06/14 01:25:22;;;;;;;;;;;;;;;13.77;60.38;99182.91;6251731;23;19923;-85
2022/06/14 01:27:48;;;;;;;;;;;;;;;13.81;60.56;99189.66;6197041;23;20014;-85
2022/06/14 01:30:16;;;;;;;;;;;;;;;13.83;60.36;99193.03;6248581;23;19919;-84
2022/06/14 01:32:53;;;;;;;;;;;;;;;13.87;60.24;99196.28;6220817;23;19923;-85
2022/06/14 01:35:23;;;;;;;;;;;;;;;13.95;60.28;99195.53;6195849;23;19926;-84
2022/06/14 01:37:50;;;;;;;;;;;;;;;13.99;60.23;99186.19;6220759;23;20006;-85
2022/06/14 01:40:16;;;;;;;;;;;;;;;14.01;60.41;99189.56;6220956;23;19920;-84
2022/06/14 01:42:56;;;;;;;;;;;;;;;14.01;60.52;99192.25;6195934;23;20232;-86
2022/06/14 01:45:22;;;;;;;;;;;;;;;14.04;60.65;99197.34;6196667;23;19993;-84
2022/06/14 01:47:59;;;;;;;;;;;;;;;13.99;61.14;99192.44;6226971;23;19919;-86
2022/06/14 01:53:34;;;;;;;;;;;;;;;14.08;60.99;99198.75;6205364;23;20002;-84
2022/06/14 01:56:15;;;;;;;;;;;;;;;14.17;60.81;99205.06;6169200;23;19926;-84
2022/06/14 01:58:53;;;;;;;;;;;;;;;14.20;61.12;99210.97;6160660;23;20011;-85
2022/06/14 02:01:24;;;;;;;;;;;;;;;14.25;60.71;99221.28;6159423;23;20327;-85
2022/06/14 02:06:49;;;;;;;;;;;;;;;14.34;60.74;99223.94;6184919;23;20252;-85
2022/06/14 02:09:27;;;;;;;;;;;;;;;14.40;60.63;99227.84;6113498;23;19924;-85
2022/06/14 02:11:54;;;;;;;;;;;;;;;14.47;60.25;99215.50;6159673;23;19935;-84
2022/06/14 02:14:34;;;;;;;;;;;;;;;14.56;60.00;99216.50;6160044;23;19920;-86
2022/06/14 02:17:11;;;;;;;;;;;;;;;14.64;59.64;99223.81;6160053;23;20035;-86
2022/06/14 02:19:42;;;;;;;;;;;;;;;14.63;59.02;99222.09;6184721;23;19920;-87
2022/06/14 02:22:11;;;;;;;;;;;;;;;14.73;59.25;99218.34;6209306;23;19920;-89
2022/06/14 02:24:41;;;;;;;;;;;;;;;14.81;59.10;99234.56;6195940;23;19974;-86
2022/06/14 02:27:33;;;;;;;;;;;;;;;14.87;59.00;99226.91;6221150;23;20006;-86
2022/06/14 02:30:03;;;;;;;;;;;;;;;15.00;58.86;99232.72;6201054;23;20293;-85
2022/06/14 02:32:36;;;;;;;;;;;;;;;15.11;58.73;99231.66;6196097;23;19999;-85
2022/06/14 02:35:08;;;;;;;;;;;;;;;15.19;58.51;99240.66;6195666;23;19945;-85
2022/06/14 02:37:54;;;;;;;;;;;;;;;15.27;58.27;99243.44;6247606;23;20362;-89
2022/06/14 02:40:32;;;;;;;;;;;;;;;15.33;58.09;99244.66;6248665;23;19926;-88
2022/06/14 02:43:02;;;;;;;;;;;;;;;15.39;57.82;99248.59;6197197;23;19981;-91
2022/06/14 02:45:35;;;;;;;;;;;;;;;15.48;57.74;99247.63;6247704;23;19951;-89
2022/06/14 02:48:07;;;;;;;;;;;;;;;15.57;57.72;99252.09;6221262;23;19927;-88
2022/06/14 02:50:37;;;;;;;;;;;;;;;15.61;57.57;99258.84;6221068;23;20001;-88
2022/06/14 02:53:14;;;;;;;;;;;;;;;15.74;57.57;99253.06;6222580;23;19919;-88
2022/06/14 02:55:44;;;;;;;;;;;;;;;15.80;57.25;99255.16;6198188;23;19984;-86
2022/06/14 02:58:10;;;;;;;;;;;;;;;15.88;57.34;99257.06;6252280;23;19965;-89
2022/06/14 03:00:56;;;;;;;;;;;;;;;15.98;57.39;99257.78;6250223;23;19923;-87
2022/06/14 03:03:24;;;;;;;;;;;;;;;16.10;57.13;99256.50;6199938;23;19919;-85
2022/06/14 03:06:02;;;;;;;;;;;;;;;16.17;57.00;99268.34;6203722;23;19924;-88
2022/06/14 03:08:40;;;;;;;;;;;;;;;16.24;57.08;99253.19;6232636;23;19943;-88
2022/06/14 03:11:06;;;;;;;;;;;;;;;16.36;56.94;99253.78;6226537;23;19919;-91
2022/06/14 03:13:43;;;;;;;;;;;;;;;16.46;56.82;99259.88;6221427;23;19926;-85
2022/06/14 03:16:12;;;;;;;;;;;;;;;16.54;56.41;99260.91;6195841;23;19974;-81
2022/06/14 03:19:04;;;;;;;;;;;;;;;16.60;56.57;99261.13;6247469;23;19919;-84
2022/06/14 03:21:35;;;;;;;;;;;;;;;16.77;56.35;99253.09;6213440;23;19970;-82
2022/06/14 03:24:10;;;;;;;;;;;;;;;16.90;56.32;99254.31;6194909;23;19999;-83
2022/06/14 03:26:55;;;;;;;;;;;;;;;17.02;56.09;99257.53;6219607;23;19947;-83
2022/06/14 03:29:34;;;;;;;;;;;;;;;17.12;56.19;99260.09;6220346;23;19993;-88
2022/06/14 03:32:07;;;;;;;;;;;;;;;17.22;55.95;99261.59;6247071;23;19919;-84
2022/06/14 03:34:41;;;;;;;;;;;;;;;17.34;55.73;99266.69;6219933;23;19927;-86
2022/06/14 03:37:06;;;;;;;;;;;;;;;17.45;55.69;99274.47;6220703;23;19926;-87
2022/06/14 03:39:34;;;;;;;;;;;;;;;17.52;55.69;99267.38;6247992;23;20259;-86
2022/06/14 03:42:03;;;;;;;;;;;;;;;17.63;55.62;99261.63;6220368;23;19925;-87
2022/06/14 03:44:29;;;;;;;;;;;;;;;17.72;55.13;99268.72;6214433;23;19919;-80
2022/06/14 03:47:09;;;;;;;;;;;;;;;17.80;55.37;99269.78;6215077;23;20366;-85
2022/06/14 03:49:37;;;;;;;;;;;;;;;17.91;55.30;99274.81;6214994;23;19927;-82
2022/06/14 03:52:11;;;;;;;;;;;;;;;17.99;55.23;99273.97;6190315;23;19969;-83
2022/06/14 03:54:37;;;;;;;;;;;;;;;18.07;54.99;99273.94;6241866;23;19920;-85
2022/06/14 03:57:03;;;;;;;;;;;;;;;18.19;54.96;99286.91;6247205;23;19927;-89
2022/06/14 03:59:41;;;;;;;;;;;;;;;18.26;55.09;99281.66;6241367;23;19983;-85
2022/06/14 04:02:21;;;;;;;;;;;;;;;18.34;54.62;99286.22;6190246;23;20010;-85
2022/06/14 04:04:56;;;;;;;;;;;;;;;18.49;54.56;99287.16;6240683;23;19950;-85
2022/06/14 04:07:28;;;;;;;;;;;;;;;18.53;54.06;99284.97;6214886;23;19924;-85
2022/06/14 04:10:20;;;;;;;;;;;;;;;18.62;54.37;99283.91;6190208;23;19927;-87
2022/06/14 04:13:01;;;;;;;;;;;;;;;18.77;54.28;99282.19;6210836;23;19924;-87
2022/06/14 04:15:31;;;;;;;;;;;;;;;18.94;54.10;99282.94;6215026;23;20355;-86
2022/06/14 04:17:57;;;;;;;;;;;;;;;19.10;53.99;99276.56;6215600;23;19924;-89
2022/06/14 04:20:31;;;;;;;;;;;;;;;19.23;53.75;99279.53;6216377;23;19920;-89
2022/06/14 04:23:33;;;;;;;;;;;;;;;19.36;53.56;99287.06;6191332;23;19997;-90
2022/06/14 04:26:02;;;;;;;;;;;;;;;19.48;52.76;99282.06;6075392;23;20004;-93
2022/06/14 04:28:34;;;;;;;;;;;;;;;19.58;52.76;99290.78;6196854;23;19934;-85
2022/06/14 04:31:19;;;;;;;;;;;;;;;19.61;52.41;99282.31;6220456;23;19942;-91
2022/06/14 04:33:47;;;;;;;;;;;;;;;19.64;52.70;99285.53;6202249;23;19919;-89
2022/06/14 04:36:18;;;;;;;;;;;;;;;19.77;52.61;99289.47;6224757;23;19931;-91
2022/06/14 04:38:47;;;;;;;;;;;;;;;19.75;51.99;99283.41;6225681;23;20399;-87
2022/06/14 04:41:19;;;;;;;;;;;;;;;19.83;52.53;99281.47;6243493;23;20342;-88
2022/06/14 04:43:44;;;;;;;;;;;;;;;19.96;51.83;99283.53;6193802;23;19920;-88
2022/06/14 04:46:30;;;;;;;;;;;;;;;20.03;50.38;99279.06;6248294;23;19995;-88
2022/06/14 04:49:04;;;;;;;;;;;;;;;20.03;50.52;99284.47;6230393;23;19923;-86
2022/06/14 04:51:49;;;;;;;;;;;;;;;20.12;49.88;99282.50;6224159;23;19920;-84
2022/06/14 04:54:24;;;;;;;;;;;;;;;20.29;48.97;99277.78;6250009;23;20010;-85
2022/06/14 04:57:08;;;;;;;;;;;;;;;20.27;47.83;99296.09;6249271;23;19964;-84
2022/06/14 04:59:52;;;;;;;;;;;;;;;20.11;47.87;99289.81;6197308;23;20470;-83
2022/06/14 05:02:22;;;;;;;;;;;;;;;20.29;48.30;99288.63;6223218;23;19920;-84
2022/06/14 05:04:50;;;;;;;;;;;;;;;20.32;48.14;99288.25;6223497;23;20002;-83
2022/06/14 05:07:25;;;;;;;;;;;;;;;20.50;47.83;99286.03;6253480;23;19959;-84
2022/06/14 05:09:56;;;;;;;;;;;;;;;20.64;47.61;99281.59;6225343;23;19965;-87
2022/06/14 05:12:25;;;;;;;;;;;;;;;20.73;44.89;99279.66;6200988;23;19969;-84
2022/06/14 05:15:07;;;;;;;;;;;;;;;20.77;45.11;99275.53;6197939;23;19927;-84
2022/06/14 05:17:53;;;;;;;;;;;;;;;20.84;45.46;99284.59;6196060;23;19919;-84
2022/06/14 05:20:41;;;;;;;;;;;;;;;20.89;44.50;99276.72;6246884;23;20343;-83
2022/06/14 05:23:11;;;;;;;;;;;;;;;20.74;43.68;99278.63;6221502;23;19968;-84
2022/06/14 05:26:00;;;;;;;;;;;;;;;20.76;42.85;99274.69;6221661;23;20002;-85
2022/06/14 05:28:38;;;;;;;;;;;;;;;20.85;43.87;99272.69;6166167;23;20046;-82
2022/06/14 05:31:13;;;;;;;;;;;;;;;21.17;42.86;99282.25;6220869;23;20295;-83
2022/06/14 05:33:58;;;;;;;;;;;;;;;21.39;42.73;99280.41;6196408;23;19919;-82
2022/06/14 05:36:29;;;;;;;;;;;;;;;21.50;41.22;99284.50;6221408;23;19919;-83
2022/06/14 05:39:09;;;;;;;;;;;;;;;21.70;40.71;99276.50;6195925;23;19919;-84
2022/06/14 05:41:39;;;;;;;;;;;;;;;21.63;39.45;99286.53;6195858;23;20244;-84
2022/06/14 05:44:08;;;;;;;;;;;;;;;21.74;39.25;99275.06;6196218;23;20421;-84
2022/06/14 05:46:38;;;;;;;;;;;;;;;21.96;38.85;99281.31;6221145;23;19947;-82
2022/06/14 05:49:07;;;;;;;;;;;;;;;21.94;39.19;99283.44;6197134;23;20332;-91
2022/06/14 05:51:42;;;;;;;;;;;;;;;21.97;37.95;99281.16;6248509;23;20264;-91
2022/06/14 05:54:11;;;;;;;;;;;;;;;22.02;36.81;99281.38;6222585;23;20324;-88
2022/06/14 05:56:45;;;;;;;;;;;;;;;22.10;36.93;99279.56;6221558;23;19920;-84
2022/06/14 05:59:31;;;;;;;;;;;;;;;22.10;37.47;99285.00;6248032;23;19927;-82
2022/06/14 06:02:02;;;;;;;;;;;;;;;22.15;36.46;99277.09;6247653;23;19920;-83
2022/06/14 06:04:40;;;;;;;;;;;;;;;22.07;36.45;99278.91;6222133;23;19920;-85
2022/06/14 06:07:08;;;;;;;;;;;;;;;22.37;37.34;99278.72;6222275;23;19981;-83
2022/06/14 06:09:37;;;;;;;;;;;;;;;22.54;35.83;99284.69;6196468;23;19920;-85
2022/06/14 06:12:07;;;;;;;;;;;;;;;22.44;34.08;99284.19;6221440;23;19986;-83
2022/06/14 06:14:39;;;;;;;;;;;;;;;22.24;35.08;99275.91;6201259;23;19927;-84
2022/06/14 06:17:16;;;;;;;;;;;;;;;22.16;33.88;99276.09;6251400;23;19955;-84
2022/06/14 06:19:58;;;;;;;;;;;;;;;22.22;33.77;99269.81;6248967;23;20001;-83
2022/06/14 06:22:43;;;;;;;;;;;;;;;22.12;32.63;99272.03;6246641;23;20018;-83
2022/06/14 06:25:09;;;;;;;;;;;;;;;22.18;33.62;99279.44;6221027;23;19919;-83
2022/06/14 06:27:39;;;;;;;;;;;;;;;22.22;32.61;99272.53;6220828;23;20010;-83
2022/06/14 06:30:09;;;;;;;;;;;;;;;22.23;32.09;99271.53;6222058;23;20136;-85
2022/06/14 06:32:35;;;;;;;;;;;;;;;22.42;32.12;99275.41;6221564;23;19927;-85
2022/06/14 06:35:03;;;;;;;;;;;;;;;22.11;32.36;99275.78;6196504;23;19981;-84
2022/06/14 06:37:41;;;;;;;;;;;;;;;22.11;32.98;99268.47;6196788;23;19920;-83
2022/06/14 06:40:16;;;;;;;;;;;;;;;22.08;32.44;99274.31;6198527;23;19919;-83
2022/06/14 06:42:48;;;;;;;;;;;;;;;22.17;33.36;99272.31;6224325;23;19919;-81
2022/06/14 06:45:14;;;;;;;;;;;;;;;22.47;33.03;99271.03;6226136;23;19926;-82
2022/06/14 06:47:47;;;;;;;;;;;;;;;22.62;31.58;99280.94;6221749;23;20397;-84
2022/06/14 06:50:19;;;;;;;;;;;;;;;22.76;31.47;99266.34;6195929;23;20340;-86
2022/06/14 06:53:02;;;;;;;;;;;;;;;22.89;31.83;99277.28;6220961;23;19924;-84
2022/06/14 06:55:47;;;;;;;;;;;;;;;22.84;31.63;99279.78;6247426;23;19919;-84
2022/06/14 06:58:16;;;;;;;;;;;;;;;22.67;31.67;99289.34;6248953;23;19926;-84
2022/06/14 07:00:43;;;;;;;;;;;;;;;22.47;30.43;99295.53;6202080;23;19926;-84
2022/06/14 07:03:18;;;;;;;;;;;;;;;22.52;32.02;99287.59;6204550;23;19943;-85
2022/06/14 07:05:47;;;;;;;;;;;;;;;22.91;32.38;99293.47;6230845;23;20251;-84
2022/06/14 07:08:17;;;;;;;;;;;;;;;22.86;31.79;99294.03;6226329;23;20258;-84
2022/06/14 07:10:46;;;;;;;;;;;;;;;22.67;31.11;99284.75;6170840;23;19926;-84
2022/06/14 07:13:18;;;;;;;;;;;;;;;22.86;31.88;99277.69;6194954;23;19919;-85
2022/06/14 07:15:55;;;;;;;;;;;;;;;23.08;31.96;99280.31;6219972;23;19925;-84
2022/06/14 07:18:29;;;;;;;;;;;;;;;23.18;31.91;99283.50;6219896;23;19972;-85
2022/06/14 07:21:01;;;;;;;;;;;;;;;23.42;31.47;99273.91;6220272;23;20355;-86
2022/06/14 07:23:35;;;;;;;;;;;;;;;23.56;31.10;99272.03;6195799;23;19926;-86
2022/06/14 07:26:04;;;;;;;;;;;;;;;23.45;32.38;99281.66;6220711;23;20258;-84
2022/06/14 07:28:36;;;;;;;;;;;;;;;23.43;32.36;99290.06;6219947;23;19919;-85
2022/06/14 07:31:06;;;;;;;;;;;;;;;23.46;32.10;99280.63;6195442;23;20247;-84
2022/06/14 07:33:32;;;;;;;;;;;;;;;23.23;32.28;99300.09;6220250;23;20389;-82
2022/06/14 07:36:02;;;;;;;;;;;;;;;23.50;32.67;99285.44;6194932;23;20002;-85
2022/06/14 07:38:39;;;;;;;;;;;;;;;23.93;32.46;99279.63;6219676;23;19919;-84
2022/06/14 07:41:08;;;;;;;;;;;;;;;23.90;31.96;99290.97;6194577;23;19998;-83
2022/06/14 07:43:34;;;;;;;;;;;;;;;23.83;31.15;99289.28;6245199;23;20001;-84
2022/06/14 07:46:03;;;;;;;;;;;;;;;23.81;32.17;99284.06;6219319;23;19919;-83
2022/06/14 07:48:49;;;;;;;;;;;;;;;23.56;31.61;99282.94;6219980;23;20347;-82
2022/06/14 07:51:15;;;;;;;;;;;;;;;23.20;32.40;99271.31;6199235;23;19974;-83
2022/06/14 07:53:57;;;;;;;;;;;;;;;23.37;32.18;99274.53;6220062;23;19920;-83
2022/06/14 07:56:29;;;;;;;;;;;;;;;23.40;32.13;99268.66;6195026;23;19921;-83
2022/06/14 07:58:58;;;;;;;;;;;;;;;23.70;31.96;99257.38;6195309;23;19930;-84
2022/06/14 08:01:26;;;;;;;;;;;;;;;24.28;31.82;99268.44;6196189;23;19926;-83
2022/06/14 08:04:30;;;;;;;;;;;;;;;24.54;30.15;99255.81;6247005;23;19924;-84
2022/06/14 08:06:59;;;;;;;;;;;;;;;24.69;30.15;99279.09;6054990;23;20018;-84
2022/06/14 08:09:34;;;;;;;;;;;;;;;24.66;29.15;99259.53;6132587;23;20099;-85
2022/06/14 08:12:01;;;;;;;;;;;;;;;24.65;30.42;99271.53;6163491;23;19919;-84
2022/06/14 08:14:42;;;;;;;;;;;;;;;24.88;30.39;99258.19;6221341;23;19998;-84
2022/06/14 08:17:09;;;;;;;;;;;;;;;24.99;30.18;99250.38;6194849;23;19924;-83
2022/06/14 08:19:42;;;;;;;;;;;;;;;24.10;30.89;99251.88;6219589;23;19923;-84
2022/06/14 08:22:10;;;;;;;;;;;;;;;24.26;31.79;99264.25;6195078;23;19919;-83
2022/06/14 08:24:40;;;;;;;;;;;;;;;24.70;31.07;99274.44;6220342;23;19920;-85
2022/06/14 08:27:22;;;;;;;;;;;;;;;24.74;30.49;99264.75;6195863;23;19920;-83
2022/06/14 08:29:54;;;;;;;;;;;;;;;24.35;30.91;99265.72;6196862;23;20008;-84
2022/06/14 08:32:43;;;;;;;;;;;;;;;24.66;30.92;99273.22;6194380;23;19920;-83
2022/06/14 08:35:12;;;;;;;;;;;;;;;25.14;30.35;99270.09;6204725;23;20356;-83
2022/06/14 08:37:38;;;;;;;;;;;;;;;25.06;29.77;99278.53;6220804;23;19920;-83
2022/06/14 08:40:22;;;;;;;;;;;;;;;24.73;29.04;99274.03;6247408;23;19930;-85
2022/06/14 08:42:52;;;;;;;;;;;;;;;24.88;29.41;99271.84;6196359;23;19919;-84
2022/06/14 08:45:37;;;;;;;;;;;;;;;25.38;28.53;99262.97;6192987;23;19920;-83
2022/06/14 08:48:06;;;;;;;;;;;;;;;25.42;29.01;99267.78;6193599;23;19966;-84
2022/06/14 08:50:37;;;;;;;;;;;;;;;25.77;30.02;99267.34;6190912;23;20434;-85
2022/06/14 08:53:03;;;;;;;;;;;;;;;25.98;28.25;99265.28;6218746;23;19920;-85
2022/06/14 08:55:47;;;;;;;;;;;;;;;25.96;28.00;99268.25;6193241;23;19934;-86
2022/06/14 08:58:32;;;;;;;;;;;;;;;26.21;28.04;99265.47;6194402;23;19966;-84
2022/06/14 09:01:09;;;;;;;;;;;;;;;26.49;27.49;99266.94;6223287;23;19926;-86
2022/06/14 09:03:53;;;;;;;;;;;;;;;26.61;27.33;99270.56;6198713;23;19920;-86
2022/06/14 09:06:24;;;;;;;;;;;;;;;26.85;27.31;99268.78;6223152;23;19924;-84
2022/06/14 09:08:53;;;;;;;;;;;;;;;26.79;27.26;99270.56;6224731;23;19923;-84
2022/06/14 09:11:25;;;;;;;;;;;;;;;26.61;27.93;99265.94;6223539;23;19931;-86
2022/06/14 09:14:13;;;;;;;;;;;;;;;26.69;27.01;99273.00;6220860;23;19919;-85
2022/06/14 09:16:38;;;;;;;;;;;;;;;27.02;26.81;99272.59;6246288;23;19964;-85
2022/06/14 09:19:12;;;;;;;;;;;;;;;27.31;27.22;99270.97;6220583;23;19926;-86
2022/06/14 09:21:38;;;;;;;;;;;;;;;27.58;26.46;99267.81;6220780;23;19920;-86
2022/06/14 09:24:23;;;;;;;;;;;;;;;27.86;26.58;99266.31;6247674;23;19995;-85
2022/06/14 09:27:14;;;;;;;;;;;;;;;28.13;26.51;99262.03;6220677;23;20307;-80
2022/06/14 09:29:55;;;;;;;;;;;;;;;27.88;25.74;99269.69;6217618;23;19920;-84
2022/06/14 09:33:09;;;;;;;;;;;;;;;27.74;26.48;99269.91;6221101;23;19943;-83
2022/06/14 09:35:30;;;;;;;;;;;;;;;27.15;24.83;99277.06;6219495;23;19920;-83
2022/06/14 09:38:19;;;;;;;;;;;;;;;26.99;25.54;99264.81;6162609;23;20019;-81
2022/06/14 09:40:54;;;;;;;;;;;;;;;27.52;25.11;99263.25;6123667;23;20311;-84
2022/06/14 09:43:20;;;;;;;;;;;;;;;27.54;25.34;99267.44;6112777;23;20003;-83
2022/06/14 09:45:50;;;;;;;;;;;;;;;27.34;25.31;99281.47;6162547;23;19920;-83
2022/06/14 09:48:35;;;;;;;;;;;;;;;27.55;25.52;99269.09;6185060;23;19920;-84
2022/06/14 09:51:16;;;;;;;;;;;;;;;28.38;25.06;99269.25;6138338;23;19927;-85
2022/06/14 09:54:00;;;;;;;;;;;;;;;28.53;24.19;99266.81;6134589;23;19921;-84
2022/06/14 09:56:34;;;;;;;;;;;;;;;28.78;23.63;99269.28;6110926;23;19920;-84
2022/06/14 09:59:06;;;;;;;;;;;;;;;28.94;22.83;99267.69;6111307;23;19920;-83
2022/06/14 10:01:53;;;;;;;;;;;;;;;28.97;22.76;99265.28;6184534;23;19921;-85
2022/06/14 10:04:37;;;;;;;;;;;;;;;28.51;24.06;99275.31;6160102;23;19988;-85
2022/06/14 10:07:18;;;;;;;;;;;;;;;28.21;23.92;99264.44;6135673;23;19924;-86
2022/06/14 10:09:53;;;;;;;;;;;;;;;27.67;24.03;99274.63;6160807;23;19927;-86
2022/06/14 10:12:44;;;;;;;;;;;;;;;27.86;24.35;99271.81;6112313;23;19943;-85
2022/06/14 10:15:19;;;;;;;;;;;;;;;28.59;24.02;99267.78;6132460;23;19920;-85
2022/06/14 10:18:01;;;;;;;;;;;;;;;29.43;23.35;99260.69;6218109;23;19927;-84
2022/06/14 10:20:33;;;;;;;;;;;;;;;30.23;21.48;99258.72;6193352;23;19942;-83
2022/06/14 10:22:58;;;;;;;;;;;;;;;29.92;21.45;99272.00;6215709;23;19919;-84
2022/06/14 10:25:24;;;;;;;;;;;;;;;29.89;21.16;99280.78;6241003;23;19919;-92
2022/06/14 10:28:12;;;;;;;;;;;;;;;29.62;21.54;99268.75;6217067;23;19927;-86
2022/06/14 10:30:47;;;;;;;;;;;;;;;30.34;21.61;99268.81;6190576;23;19973;-86
2022/06/14 10:33:28;;;;;;;;;;;;;;;30.35;21.07;99266.91;6241005;23;19919;-86
2022/06/14 10:36:12;;;;;;;;;;;;;;;30.69;20.75;99262.97;6216372;23;19926;-85
2022/06/14 10:38:44;;;;;;;;;;;;;;;31.43;20.63;99268.00;6215708;23;19920;-83
2022/06/14 10:41:25;;;;;;;;;;;;;;;30.72;21.12;99267.13;6215457;23;19947;-84
2022/06/14 10:44:10;;;;;;;;;;;;;;;31.10;21.26;99270.94;6215150;23;19919;-85
2022/06/14 10:47:05;;;;;;;;;;;;;;;30.98;19.94;99262.78;6191425;23;19924;-87
2022/06/14 10:49:49;;;;;;;;;;;;;;;31.24;19.98;99258.38;6110189;23;20060;-84
2022/06/14 10:52:21;;;;;;;;;;;;;;;31.52;19.44;99256.47;6216807;23;20248;-81
2022/06/14 10:54:54;;;;;;;;;;;;;;;32.31;19.71;99251.06;6240315;23;19924;-83
2022/06/14 10:57:37;;;;;;;;;;;;;;;33.00;19.05;99263.88;6240945;23;19919;-82
2022/06/14 11:00:03;;;;;;;;;;;;;;;33.42;19.08;99262.88;6189709;23;20027;-82
2022/06/14 11:02:47;;;;;;;;;;;;;;;33.21;19.03;99263.94;6214730;23;19923;-83
2022/06/14 11:05:32;;;;;;;;;;;;;;;33.07;17.85;99281.09;6214824;23;19924;-83
2022/06/14 11:08:07;;;;;;;;;;;;;;;32.45;19.04;99265.25;6165024;23;19924;-81
2022/06/14 11:10:39;;;;;;;;;;;;;;;33.33;18.65;99261.78;6215122;23;19920;-82
2022/06/14 11:13:23;;;;;;;;;;;;;;;33.59;18.24;99255.19;6215343;23;20070;-82
2022/06/14 11:15:52;;;;;;;;;;;;;;;34.06;17.96;99264.34;6189750;23;20359;-82
2022/06/14 11:18:23;;;;;;;;;;;;;;;34.35;18.38;99256.25;6190656;23;19962;-82
2022/06/14 11:20:58;;;;;;;;;;;;;;;34.52;17.61;99245.69;6216655;23;19927;-83
2022/06/14 11:23:47;;;;;;;;;;;;;;;33.28;18.65;99245.13;6214467;23;20343;-83
2022/06/14 11:26:27;;;;;;;;;;;;;;;33.74;18.12;99256.28;6190517;23;19920;-83
2022/06/14 11:29:01;;;;;;;;;;;;;;;33.77;17.92;99258.50;6217843;23;20007;-84
2022/06/14 11:31:32;;;;;;;;;;;;;;;32.73;18.54;99252.13;6240841;23;19920;-85
2022/06/14 11:34:21;;;;;;;;;;;;;;;33.30;18.62;99245.69;6239914;23;20392;-84
2022/06/14 11:37:05;;;;;;;;;;;;;;;34.21;18.17;99252.41;6214673;23;19920;-84
2022/06/14 11:39:41;;;;;;;;;;;;;;;33.70;18.18;99244.09;6215777;23;19920;-84
2022/06/14 11:42:16;;;;;;;;;;;;;;;34.38;17.66;99250.16;6215144;23;20363;-85
2022/06/14 11:44:48;;;;;;;;;;;;;;;34.13;18.28;99250.19;6215718;23;19920;-85
2022/06/14 11:47:22;;;;;;;;;;;;;;;34.35;17.72;99242.38;6214662;23;19920;-84
2022/06/14 11:49:47;;;;;;;;;;;;;;;34.55;17.57;99238.75;6214610;23;19927;-83
2022/06/14 11:52:24;;;;;;;;;;;;;;;34.65;17.19;99243.44;6215675;23;19924;-85
2022/06/14 11:55:08;;;;;;;;;;;;;;;35.40;17.03;99246.94;6239681;23;19920;-83
2022/06/14 11:57:53;;;;;;;;;;;;;;;35.86;16.83;99241.06;6216264;23;19955;-84
2022/06/14 12:00:25;;;;;;;;;;;;;;;35.91;16.01;99237.38;6213894;23;19926;-84
2022/06/14 12:02:57;;;;;;;;;;;;;;;34.84;16.96;99236.13;6214775;23;20006;-83
2022/06/14 12:05:38;;;;;;;;;;;;;;;35.78;16.46;99233.34;6190701;23;19930;-84
2022/06/14 12:08:24;;;;;;;;;;;;;;;35.87;15.40;99239.09;6215431;23;19920;-83
2022/06/14 12:10:51;;;;;;;;;;;;;;;34.98;15.83;99242.72;6194886;23;19942;-84
2022/06/14 12:13:35;;;;;;;;;;;;;;;35.13;15.67;99244.63;6189125;23;19943;-84
2022/06/14 12:16:21;;;;;;;;;;;;;;;35.69;15.60;99235.06;6215656;23;19919;-84
2022/06/14 12:19:07;;;;;;;;;;;;;;;36.60;15.25;99227.00;6213084;23;19942;-84
2022/06/14 12:21:45;;;;;;;;;;;;;;;37.62;14.74;99229.19;6188862;23;20267;-84
2022/06/14 12:24:17;;;;;;;;;;;;;;;38.51;14.40;99230.94;6188726;23;19920;-83
2022/06/14 12:26:55;;;;;;;;;;;;;;;38.23;14.10;99238.47;6214225;23;19927;-85
2022/06/14 12:29:41;;;;;;;;;;;;;;;37.99;14.31;99240.56;6214347;23;20320;-85
2022/06/14 12:32:21;;;;;;;;;;;;;;;37.90;14.29;99232.91;6187959;23;19926;-85
2022/06/14 12:34:49;;;;;;;;;;;;;;;37.96;14.12;99227.25;6215901;23;19927;-85
2022/06/14 12:37:34;;;;;;;;;;;;;;;38.99;13.71;99235.31;6214060;23;19923;-83
2022/06/14 12:40:03;;;;;;;;;;;;;;;39.19;13.24;99229.22;6214214;23;20006;-84
2022/06/14 12:42:33;;;;;;;;;;;;;;;38.66;13.35;99232.59;6189093;23;19920;-85
2022/06/14 12:45:05;;;;;;;;;;;;;;;38.87;13.50;99235.84;6214779;23;19924;-84
2022/06/14 12:47:37;;;;;;;;;;;;;;;39.55;13.56;99231.22;6216398;23;20275;-85
2022/06/14 12:50:12;;;;;;;;;;;;;;;39.06;13.28;99242.13;6215839;23;20305;-86
2022/06/14 12:52:42;;;;;;;;;;;;;;;38.90;13.54;99234.41;6191161;23;19919;-84
2022/06/14 12:55:16;;;;;;;;;;;;;;;39.11;13.63;99235.56;6216031;23;19919;-82
2022/06/14 12:58:00;;;;;;;;;;;;;;;39.26;13.61;99228.84;6241202;23;19924;-84
2022/06/14 13:00:49;;;;;;;;;;;;;;;39.44;13.46;99229.81;6190564;23;19956;-84
2022/06/14 13:03:31;;;;;;;;;;;;;;;40.25;12.91;99233.38;6241051;23;19995;-84
2022/06/14 13:06:13;;;;;;;;;;;;;;;39.64;13.16;99234.91;6191378;23;20336;-83
2022/06/14 13:08:56;;;;;;;;;;;;;;;38.48;13.59;99220.44;6191184;23;20207;-84
2022/06/14 13:11:31;;;;;;;;;;;;;;;38.20;13.86;99232.66;6217365;23;19926;-83
2022/06/14 13:14:15;;;;;;;;;;;;;;;38.15;13.94;99228.84;6190849;23;19928;-85
2022/06/14 13:17:04;;;;;;;;;;;;;;;38.91;13.48;99236.03;6217597;23;20417;-86
2022/06/14 13:19:37;;;;;;;;;;;;;;;38.48;13.63;99230.75;6197055;23;19920;-86
2022/06/14 13:22:15;;;;;;;;;;;;;;;37.61;14.07;99235.06;6215463;23;20006;-82
2022/06/14 13:25:00;;;;;;;;;;;;;;;37.17;14.02;99227.91;6215682;23;20007;-84
2022/06/14 13:27:31;;;;;;;;;;;;;;;36.18;14.41;99228.53;6190252;23;19923;-83
2022/06/14 13:30:16;;;;;;;;;;;;;;;36.23;14.34;99225.69;6215114;23;19920;-83
2022/06/14 13:33:00;;;;;;;;;;;;;;;36.32;13.95;99226.69;6215808;23;20002;-84